Time;durP1;ratioP1;P1;durP2;ratioP2;P2;SDS_P1;SDS_P2;PMS_P1;PMS_P2;Temp;Humidity;BMP_temperature;BMP_pressure;BME280_temperature;BME280_humidity;BME280_pressure;Samples;Min_cycle;Max_cycle;Signal;HPM_P1;HPM_P2
2023/05/19 00:01:19;;;;;;;24.25;6.65;;;6.20;88.40;;;;;;4987223;28;20604;-72
2023/05/19 00:04:01;;;;;;;15.70;5.90;;;6.20;88.20;;;;;;4984858;28;20049;-72
2023/05/19 00:06:30;;;;;;;18.65;5.40;;;6.20;88.70;;;;;;5005091;28;20049;-72
2023/05/19 00:08:58;;;;;;;21.52;5.53;;;6.20;88.90;;;;;;4987946;28;20120;-72
2023/05/19 00:11:26;;;;;;;18.20;5.43;;;6.20;87.90;;;;;;5000991;28;20050;-72
2023/05/19 00:13:54;;;;;;;26.48;7.38;;;6.20;87.90;;;;;;4986820;28;20057;-72
2023/05/19 00:16:23;;;;;;;13.95;5.95;;;6.20;87.90;;;;;;5003868;28;20053;-72
2023/05/19 00:18:50;;;;;;;23.88;6.85;;;6.20;87.90;;;;;;5005404;28;20049;-72
2023/05/19 00:21:18;;;;;;;21.63;7.35;;;6.20;87.50;;;;;;5003007;28;20153;-72
2023/05/19 00:23:44;;;;;;;27.70;6.95;;;6.20;87.30;;;;;;5002121;28;20056;-72
2023/05/19 00:26:11;;;;;;;16.63;6.72;;;6.10;88.20;;;;;;5001912;28;20771;-72
2023/05/19 00:28:38;;;;;;;25.55;6.72;;;6.10;88.70;;;;;;4999695;28;20050;-72
2023/05/19 00:31:06;;;;;;;18.17;6.85;;;6.10;88.70;;;;;;4987807;28;20132;-72
2023/05/19 00:33:33;;;;;;;20.38;7.28;;;6.10;88.90;;;;;;4982723;28;20056;-72
2023/05/19 00:36:04;;;;;;;24.33;7.07;;;6.10;88.60;;;;;;5005445;28;20107;-72
2023/05/19 00:38:33;;;;;;;25.17;7.05;;;6.00;89.20;;;;;;4997323;28;20046;-72
2023/05/19 00:41:01;;;;;;;27.35;6.32;;;6.00;89.40;;;;;;4987175;28;20624;-72
2023/05/19 00:43:33;;;;;;;21.38;6.18;;;5.90;89.40;;;;;;5001063;28;20053;-72
2023/05/19 00:45:59;;;;;;;23.45;6.28;;;5.90;89.40;;;;;;4986300;28;20098;-72
2023/05/19 00:48:27;;;;;;;25.42;6.25;;;5.90;89.80;;;;;;4986753;28;20749;-72
2023/05/19 00:51:00;;;;;;;22.70;5.53;;;5.90;89.10;;;;;;4983699;28;20057;-72
2023/05/19 00:53:28;;;;;;;13.32;5.57;;;5.80;89.60;;;;;;4996199;28;20057;-72
2023/05/19 00:55:56;;;;;;;16.15;5.72;;;5.90;89.30;;;;;;5002174;28;20132;-72
2023/05/19 00:58:28;;;;;;;15.90;6.20;;;5.90;89.40;;;;;;5003434;28;20554;-72
2023/05/19 01:01:02;;;;;;;18.65;6.70;;;5.90;89.00;;;;;;5004562;28;20050;-72
2023/05/19 01:03:33;;;;;;;16.27;5.97;;;5.80;89.10;;;;;;4986329;28;20046;-72
2023/05/19 01:06:03;;;;;;;21.33;5.88;;;5.80;89.40;;;;;;5005037;28;20801;-72
2023/05/19 01:08:32;;;;;;;17.60;5.82;;;5.90;89.70;;;;;;4985483;28;20046;-72
2023/05/19 01:11:00;;;;;;;23.05;5.82;;;5.80;89.40;;;;;;5006528;28;20101;-72
2023/05/19 01:13:27;;;;;;;13.82;6.25;;;5.80;89.20;;;;;;4986901;28;20125;-72
2023/05/19 01:16:06;;;;;;;19.77;6.20;;;5.70;89.40;;;;;;5006560;28;20100;-71
2023/05/19 01:18:45;;;;;;;17.58;6.15;;;5.70;90.40;;;;;;4978942;28;20056;-71
2023/05/19 01:21:30;;;;;;;20.45;5.93;;;5.70;90.80;;;;;;5005386;28;20058;-71
2023/05/19 01:24:34;;;;;;;32.07;7.07;;;5.70;89.60;;;;;;5003860;28;20117;-72
2023/05/19 01:27:04;;;;;;;20.13;6.97;;;5.70;89.70;;;;;;4980946;28;21101;-71
2023/05/19 01:29:52;;;;;;;27.02;7.40;;;5.70;90.40;;;;;;5001480;28;20129;-71
2023/05/19 01:32:22;;;;;;;17.65;6.85;;;5.70;90.20;;;;;;4983012;28;20132;-71
2023/05/19 01:34:51;;;;;;;16.90;6.97;;;5.70;90.60;;;;;;4998097;28;20045;-71
2023/05/19 01:37:20;;;;;;;23.38;6.07;;;5.70;90.60;;;;;;5005990;28;20104;-71
2023/05/19 01:39:48;;;;;;;19.95;6.50;;;5.70;91.00;;;;;;5000610;28;20208;-71
2023/05/19 01:42:16;;;;;;;20.85;6.88;;;5.60;90.90;;;;;;4982403;28;20137;-71
2023/05/19 01:44:44;;;;;;;17.13;6.35;;;5.60;90.00;;;;;;4983621;28;20137;-71
2023/05/19 01:47:11;;;;;;;20.05;6.18;;;5.60;90.30;;;;;;4987963;28;20053;-71
2023/05/19 01:49:37;;;;;;;17.80;6.60;;;5.50;90.60;;;;;;4987838;28;20078;-71
2023/05/19 01:52:05;;;;;;;21.80;6.50;;;5.50;90.90;;;;;;4994928;28;20132;-71
2023/05/19 01:54:32;;;;;;;15.50;6.22;;;5.50;90.90;;;;;;4994617;28;20150;-71
2023/05/19 01:57:13;;;;;;;25.35;6.97;;;5.50;91.20;;;;;;4977672;28;20061;-71
2023/05/19 01:59:55;;;;;;;23.02;6.65;;;5.50;91.00;;;;;;5003021;28;20053;-71
2023/05/19 02:02:33;;;;;;;25.50;5.82;;;5.50;91.00;;;;;;5004255;28;20135;-71
2023/05/19 02:05:16;;;;;;;20.77;6.65;;;5.40;91.00;;;;;;5000849;28;20085;-71
2023/05/19 02:08:11;;;;;;;26.50;6.30;;;5.40;91.20;;;;;;4997237;28;20054;-71
2023/05/19 02:10:44;;;;;;;27.33;6.68;;;5.40;91.40;;;;;;4981249;28;20132;-74
2023/05/19 02:13:13;;;;;;;23.67;6.07;;;5.40;91.10;;;;;;5002519;28;20935;-74
2023/05/19 02:15:41;;;;;;;25.58;6.75;;;5.30;91.00;;;;;;5000938;28;20050;-71
2023/05/19 02:18:12;;;;;;;19.75;6.18;;;5.20;91.80;;;;;;4986815;28;20077;-71
2023/05/19 02:20:39;;;;;;;15.02;6.25;;;5.20;91.60;;;;;;4999124;28;20640;-71
2023/05/19 02:23:06;;;;;;;26.83;7.47;;;5.10;91.60;;;;;;5002459;28;20049;-71
2023/05/19 02:25:33;;;;;;;17.65;6.60;;;5.10;91.90;;;;;;4995602;23;20056;-77
2023/05/19 02:28:00;;;;;;;23.83;6.53;;;5.10;91.80;;;;;;5037731;28;20049;-78
2023/05/19 02:30:27;;;;;;;27.65;6.75;;;5.10;91.50;;;;;;5040969;28;20077;-78
2023/05/19 02:32:54;;;;;;;23.23;7.13;;;5.00;91.90;;;;;;5041695;28;20107;-79
2023/05/19 02:35:21;;;;;;;18.35;6.35;;;4.90;92.10;;;;;;5045523;28;20049;-77
2023/05/19 02:37:48;;;;;;;24.58;7.47;;;4.90;91.60;;;;;;5044011;28;20064;-79
2023/05/19 02:40:14;;;;;;;18.08;7.45;;;4.90;91.90;;;;;;5047582;28;20569;-79
2023/05/19 02:42:41;;;;;;;23.63;7.25;;;4.80;91.90;;;;;;5050056;28;20076;-78
2023/05/19 02:45:08;;;;;;;20.35;7.30;;;4.80;91.60;;;;;;5043667;28;20133;-79
2023/05/19 02:47:37;;;;;;;19.30;7.22;;;4.80;91.60;;;;;;5047706;28;20425;-79
2023/05/19 02:50:05;;;;;;;23.83;7.03;;;4.80;92.10;;;;;;5046591;28;20128;-78
2023/05/19 02:52:32;;;;;;;19.30;6.85;;;4.70;91.90;;;;;;5046486;28;20076;-79
2023/05/19 02:54:58;;;;;;;27.38;7.82;;;4.80;92.30;;;;;;5047206;28;20072;-79
2023/05/19 02:57:25;;;;;;;26.48;7.75;;;4.80;92.40;;;;;;5054682;28;20041;-80
2023/05/19 02:59:52;;;;;;;24.38;7.07;;;4.80;92.90;;;;;;5046124;28;20132;-78
2023/05/19 03:02:19;;;;;;;24.08;7.30;;;4.80;93.10;;;;;;5043039;28;20049;-78
2023/05/19 03:04:46;;;;;;;24.08;7.35;;;4.80;93.40;;;;;;5043843;28;20045;-79
2023/05/19 03:07:14;;;;;;;24.98;7.40;;;4.80;93.30;;;;;;5039323;28;20053;-78
2023/05/19 03:09:41;;;;;;;26.38;8.02;;;4.80;93.50;;;;;;5034704;28;20053;-82
2023/05/19 03:12:08;;;;;;;29.42;9.15;;;4.80;93.50;;;;;;5042180;28;20124;-81
2023/05/19 03:14:37;;;;;;;22.88;7.90;;;4.80;93.60;;;;;;5038661;28;20059;-81
2023/05/19 03:17:06;;;;;;;20.95;8.30;;;4.80;93.70;;;;;;5045292;28;20063;-79
2023/05/19 03:19:33;;;;;;;21.08;7.75;;;4.70;93.70;;;;;;5042563;28;20041;-79
2023/05/19 03:22:00;;;;;;;23.75;7.45;;;4.70;93.90;;;;;;5044692;28;20051;-79
2023/05/19 03:24:27;;;;;;;25.05;8.70;;;4.70;93.80;;;;;;5035962;28;20045;-79
2023/05/19 03:26:54;;;;;;;29.23;8.25;;;4.70;94.00;;;;;;5048153;28;20132;-79
2023/05/19 03:29:21;;;;;;;21.27;8.18;;;4.70;94.20;;;;;;5035780;28;20092;-78
2023/05/19 03:31:48;;;;;;;24.63;8.82;;;4.70;94.30;;;;;;5040376;28;20051;-78
2023/05/19 03:34:15;;;;;;;33.13;9.48;;;4.70;94.60;;;;;;5044779;28;20091;-78
2023/05/19 03:36:43;;;;;;;18.75;7.63;;;4.80;94.80;;;;;;5048466;28;20084;-79
2023/05/19 03:39:10;;;;;;;15.85;7.13;;;4.80;94.80;;;;;;5039874;28;20826;-79
2023/05/19 03:41:37;;;;;;;19.83;7.05;;;4.80;95.10;;;;;;5044006;28;20092;-79
2023/05/19 03:44:04;;;;;;;21.65;8.82;;;4.80;95.70;;;;;;5043238;28;20056;-79
2023/05/19 03:46:31;;;;;;;21.45;8.02;;;4.90;95.70;;;;;;5040430;28;20049;-78
2023/05/19 03:48:58;;;;;;;21.92;7.03;;;4.90;96.00;;;;;;5048065;28;20056;-79
2023/05/19 03:51:27;;;;;;;23.92;7.68;;;5.00;96.10;;;;;;5048321;28;20036;-79
2023/05/19 03:53:54;;;;;;;20.83;7.97;;;5.10;95.70;;;;;;5044778;28;20049;-79
2023/05/19 03:56:22;;;;;;;21.95;7.43;;;5.10;95.90;;;;;;5032627;28;20077;-81
2023/05/19 03:58:49;;;;;;;21.10;8.40;;;5.20;95.60;;;;;;5043145;28;20760;-78
2023/05/19 04:01:16;;;;;;;26.55;7.63;;;5.30;95.00;;;;;;5045753;28;20160;-78
2023/05/19 04:03:43;;;;;;;25.60;8.13;;;5.30;94.80;;;;;;5039549;28;20450;-78
2023/05/19 04:06:10;;;;;;;22.52;7.75;;;5.40;94.70;;;;;;5044536;28;20049;-79
2023/05/19 04:08:37;;;;;;;33.25;7.53;;;5.50;94.40;;;;;;5043989;28;20076;-79
2023/05/19 04:11:04;;;;;;;21.02;8.25;;;5.50;94.10;;;;;;5037151;28;20571;-78
2023/05/19 04:13:34;;;;;;;21.08;8.02;;;5.60;94.30;;;;;;5036237;28;20128;-78
2023/05/19 04:16:01;;;;;;;26.50;7.88;;;5.60;93.60;;;;;;5044013;28;20091;-79
2023/05/19 04:18:28;;;;;;;23.38;7.78;;;5.70;93.60;;;;;;5040074;28;20503;-78
2023/05/19 04:20:55;;;;;;;27.67;7.53;;;5.70;93.80;;;;;;5038320;28;20461;-79
2023/05/19 04:23:22;;;;;;;22.83;7.22;;;5.80;93.90;;;;;;5042046;28;20479;-78
2023/05/19 04:25:49;;;;;;;18.40;7.93;;;5.90;93.80;;;;;;5048303;28;20048;-77
2023/05/19 04:28:16;;;;;;;26.13;8.13;;;5.90;93.70;;;;;;5041116;28;20128;-78
2023/05/19 04:30:45;;;;;;;29.88;8.48;;;6.00;93.80;;;;;;5046464;23;20052;-71
2023/05/19 04:33:12;;;;;;;25.35;9.05;;;6.10;93.80;;;;;;5059947;28;20056;-71
2023/05/19 04:35:39;;;;;;;22.52;8.32;;;6.20;93.50;;;;;;5061194;28;20075;-71
2023/05/19 04:38:06;;;;;;;21.02;7.90;;;6.20;93.10;;;;;;5054572;28;20045;-71
2023/05/19 04:40:33;;;;;;;25.77;8.30;;;6.30;93.20;;;;;;5062927;28;20087;-71
2023/05/19 04:43:00;;;;;;;25.25;7.88;;;6.30;93.00;;;;;;5043519;28;20049;-72
2023/05/19 04:45:28;;;;;;;20.77;8.23;;;6.40;92.80;;;;;;5065123;28;20071;-72
2023/05/19 04:47:56;;;;;;;20.15;7.90;;;6.50;92.90;;;;;;5047703;28;20481;-72
2023/05/19 04:50:24;;;;;;;23.65;7.90;;;6.50;93.00;;;;;;5046169;28;20045;-72
2023/05/19 04:52:51;;;;;;;20.17;6.68;;;6.60;92.80;;;;;;5061219;28;20056;-72
2023/05/19 04:55:18;;;;;;;16.27;6.70;;;6.60;92.40;;;;;;5047364;28;20041;-72
2023/05/19 04:57:45;;;;;;;24.52;7.97;;;6.60;92.50;;;;;;5047108;28;20048;-71
2023/05/19 05:00:13;;;;;;;26.73;6.90;;;6.70;92.10;;;;;;5056147;28;20085;-71
2023/05/19 05:02:41;;;;;;;21.38;7.20;;;6.80;92.30;;;;;;5041665;28;20049;-72
2023/05/19 05:05:08;;;;;;;27.73;7.80;;;6.90;92.10;;;;;;5040586;28;20063;-71
2023/05/19 05:07:35;;;;;;;19.38;6.43;;;6.90;92.10;;;;;;5046240;28;20067;-72
2023/05/19 05:10:03;;;;;;;28.02;7.95;;;7.00;92.00;;;;;;5046453;28;20044;-72
2023/05/19 05:12:31;;;;;;;23.33;7.43;;;7.10;91.50;;;;;;5054651;28;20105;-72
2023/05/19 05:14:58;;;;;;;20.58;6.93;;;7.20;91.10;;;;;;5040792;28;20052;-72
2023/05/19 05:17:25;;;;;;;19.05;6.68;;;7.30;90.70;;;;;;5045443;28;20144;-73
2023/05/19 05:19:53;;;;;;;21.70;7.53;;;7.30;90.50;;;;;;5054874;28;20083;-72
2023/05/19 05:22:20;;;;;;;20.58;7.13;;;7.40;90.50;;;;;;5060866;28;20044;-72
2023/05/19 05:24:47;;;;;;;19.17;6.43;;;7.50;90.20;;;;;;5041979;28;20064;-72
2023/05/19 05:27:14;;;;;;;36.83;7.30;;;7.70;90.20;;;;;;5043626;28;20055;-72
2023/05/19 05:29:41;;;;;;;19.75;6.60;;;7.70;89.40;;;;;;5060462;28;20131;-72
2023/05/19 05:32:08;;;;;;;24.65;6.93;;;7.80;89.40;;;;;;5065311;28;20546;-72
2023/05/19 05:34:36;;;;;;;17.83;6.93;;;8.00;89.50;;;;;;5044941;28;20060;-72
2023/05/19 05:37:03;;;;;;;21.90;7.22;;;8.10;89.30;;;;;;5045996;28;20536;-72
2023/05/19 05:39:30;;;;;;;19.73;6.93;;;8.30;88.70;;;;;;5056285;28;20055;-72
2023/05/19 05:41:57;;;;;;;15.20;5.97;;;8.50;88.40;;;;;;5055623;28;20139;-72
2023/05/19 05:44:24;;;;;;;14.40;6.25;;;8.60;87.40;;;;;;5042218;28;20088;-72
2023/05/19 05:46:51;;;;;;;19.02;6.63;;;8.70;86.80;;;;;;5056600;28;20056;-72
2023/05/19 05:49:19;;;;;;;23.98;6.18;;;8.80;86.90;;;;;;5063072;28;20087;-72
2023/05/19 05:51:46;;;;;;;17.50;6.40;;;9.00;86.30;;;;;;5056225;28;20115;-72
2023/05/19 05:54:27;;;;;;;14.93;5.60;;;9.10;85.70;;;;;;5059835;28;20130;-72
2023/05/19 05:56:54;;;;;;;24.42;5.97;;;9.30;85.80;;;;;;5054266;28;20052;-72
2023/05/19 05:59:21;;;;;;;15.13;5.30;;;9.50;85.30;;;;;;5059336;28;20076;-72
2023/05/19 06:01:48;;;;;;;16.38;5.40;;;9.80;84.70;;;;;;5057404;28;20053;-73
2023/05/19 06:04:15;;;;;;;11.95;5.30;;;10.00;83.80;;;;;;5034685;28;20057;-73
2023/05/19 06:06:42;;;;;;;17.80;5.03;;;10.10;83.20;;;;;;5060391;28;20147;-72
2023/05/19 06:09:09;;;;;;;14.27;5.18;;;10.40;82.40;;;;;;5061996;28;20079;-72
2023/05/19 06:11:36;;;;;;;22.60;5.40;;;10.70;81.90;;;;;;5058384;28;20056;-72
2023/05/19 06:14:03;;;;;;;14.40;5.05;;;10.80;80.10;;;;;;5054970;28;20443;-72
2023/05/19 06:16:30;;;;;;;16.10;4.63;;;10.90;79.70;;;;;;5056940;28;20084;-72
2023/05/19 06:18:57;;;;;;;10.18;4.80;;;11.00;79.80;;;;;;5061196;28;20094;-72
2023/05/19 06:21:24;;;;;;;14.10;4.43;;;11.30;79.30;;;;;;5056134;28;20052;-73
2023/05/19 06:23:52;;;;;;;12.80;4.20;;;11.50;79.70;;;;;;5063869;28;20413;-72
2023/05/19 06:26:18;;;;;;;15.98;3.65;;;11.80;79.40;;;;;;5042873;28;20059;-72
2023/05/19 06:28:45;;;;;;;15.88;4.43;;;12.10;78.10;;;;;;5055279;28;20056;-72
2023/05/19 06:31:12;;;;;;;16.60;4.03;;;12.20;77.80;;;;;;5056770;28;20139;-72
2023/05/19 06:33:39;;;;;;;30.48;4.07;;;12.70;77.30;;;;;;5041563;28;20163;-73
2023/05/19 06:36:08;;;;;;;12.30;3.45;;;13.00;75.90;;;;;;5059668;28;20048;-73
2023/05/19 06:38:35;;;;;;;16.23;3.50;;;13.20;75.00;;;;;;5055537;28;21505;-73
2023/05/19 06:41:02;;;;;;;12.60;2.65;;;13.30;73.20;;;;;;5056773;28;20490;-73
2023/05/19 06:43:29;;;;;;;11.52;3.40;;;13.50;72.90;;;;;;5041921;28;20044;-73
2023/05/19 06:45:56;;;;;;;12.10;2.95;;;13.60;73.00;;;;;;5034138;28;20049;-72
2023/05/19 06:48:23;;;;;;;11.20;2.50;;;13.80;72.00;;;;;;5038117;28;20044;-72
2023/05/19 06:50:50;;;;;;;16.65;3.20;;;13.80;71.40;;;;;;5036397;28;20148;-73
2023/05/19 06:53:19;;;;;;;10.32;2.80;;;13.70;70.70;;;;;;5036091;28;20800;-73
2023/05/19 06:55:48;;;;;;;10.50;2.70;;;13.70;70.80;;;;;;5058960;28;20052;-72
2023/05/19 06:58:25;;;;;;;10.88;2.28;;;13.90;71.50;;;;;;5061723;28;20056;-73
2023/05/19 07:00:52;;;;;;;7.90;2.28;;;14.10;70.80;;;;;;5038943;28;20049;-73
2023/05/19 07:03:19;;;;;;;35.60;3.15;;;14.30;70.20;;;;;;5056974;28;20159;-73
2023/05/19 07:05:46;;;;;;;8.90;2.63;;;14.50;69.30;;;;;;5062721;28;20087;-73
2023/05/19 07:08:13;;;;;;;9.70;2.45;;;14.50;68.80;;;;;;5058409;28;20451;-73
2023/05/19 07:10:40;;;;;;;8.93;2.95;;;14.70;68.10;;;;;;5057273;28;20083;-74
2023/05/19 07:13:07;;;;;;;9.15;2.47;;;14.90;69.10;;;;;;5059724;28;20054;-76
2023/05/19 07:15:33;;;;;;;12.77;2.95;;;15.50;67.60;;;;;;5042813;28;20168;-74
2023/05/19 07:18:00;;;;;;;10.85;2.13;;;15.60;66.00;;;;;;5062664;28;20045;-75
2023/05/19 07:20:27;;;;;;;7.68;1.67;;;16.10;65.30;;;;;;5045611;28;20098;-72
2023/05/19 07:22:54;;;;;;;10.73;1.98;;;16.60;64.10;;;;;;5060670;28;20080;-75
2023/05/19 07:25:21;;;;;;;6.25;2.00;;;17.00;61.20;;;;;;5061592;28;20044;-74
2023/05/19 07:27:48;;;;;;;10.00;2.00;;;17.00;60.30;;;;;;5062984;28;20070;-75
2023/05/19 07:30:15;;;;;;;6.38;1.98;;;16.90;61.90;;;;;;5042814;28;20048;-74
2023/05/19 07:32:42;;;;;;;11.32;1.75;;;17.10;60.40;;;;;;5054377;28;20040;-75
2023/05/19 07:35:08;;;;;;;10.07;1.65;;;17.20;61.50;;;;;;5044075;28;20122;-75
2023/05/19 07:37:35;;;;;;;7.25;2.08;;;17.60;60.20;;;;;;5063300;28;20053;-75
2023/05/19 07:40:03;;;;;;;8.98;1.80;;;18.00;60.30;;;;;;5053445;28;20570;-74
2023/05/19 07:42:30;;;;;;;9.85;1.70;;;18.20;59.90;;;;;;5059312;28;20053;-74
2023/05/19 07:44:57;;;;;;;26.23;3.17;;;18.80;57.30;;;;;;5059175;28;20100;-74
2023/05/19 07:47:24;;;;;;;10.93;2.08;;;19.00;55.20;;;;;;5054411;28;20163;-74
2023/05/19 07:49:51;;;;;;;7.72;1.58;;;19.00;57.10;;;;;;5041449;28;20059;-75
2023/05/19 07:52:18;;;;;;;18.23;1.75;;;18.80;55.50;;;;;;5043281;28;20446;-74
2023/05/19 07:54:45;;;;;;;9.43;1.55;;;19.50;55.20;;;;;;5054629;28;20142;-74
2023/05/19 07:57:13;;;;;;;9.05;1.20;;;20.00;50.70;;;;;;5042599;28;20082;-73
2023/05/19 07:59:40;;;;;;;9.45;1.60;;;19.80;52.80;;;;;;5036324;28;20064;-73
2023/05/19 08:02:07;;;;;;;8.18;1.40;;;20.30;52.00;;;;;;5058062;28;20053;-74
2023/05/19 08:04:33;;;;;;;9.43;1.50;;;20.70;51.90;;;;;;5036870;28;20063;-73
2023/05/19 08:07:00;;;;;;;6.25;1.50;;;21.10;52.30;;;;;;5041503;28;20056;-74
2023/05/19 08:09:27;;;;;;;4.43;1.90;;;21.40;50.10;;;;;;5058133;28;20088;-74
2023/05/19 08:11:54;;;;;;;12.75;1.67;;;21.90;49.70;;;;;;5039308;28;20080;-73
2023/05/19 08:14:21;;;;;;;5.32;1.60;;;22.50;49.10;;;;;;5062741;28;20518;-72
2023/05/19 08:16:48;;;;;;;8.20;1.88;;;22.90;46.50;;;;;;5061948;28;20053;-73
2023/05/19 08:19:15;;;;;;;7.05;2.13;;;22.90;47.90;;;;;;5042528;28;20234;-73
2023/05/19 08:21:43;;;;;;;8.25;1.60;;;23.10;47.00;;;;;;5059701;28;20068;-73
2023/05/19 08:24:13;;;;;;;8.45;2.58;;;23.00;46.40;;;;;;5060378;28;20128;-73
2023/05/19 08:26:40;;;;;;;11.82;2.50;;;22.60;49.70;;;;;;5055265;28;20064;-73
2023/05/19 08:29:07;;;;;;;25.20;3.22;;;22.70;49.70;;;;;;5044499;28;20052;-73
2023/05/19 08:31:34;;;;;;;23.40;3.08;;;22.90;52.20;;;;;;5063369;28;20543;-73
2023/05/19 08:34:01;;;;;;;15.20;2.65;;;22.90;50.60;;;;;;5061706;28;20051;-72
2023/05/19 08:36:29;;;;;;;3.10;1.40;;;23.40;50.70;;;;;;5061957;28;20059;-72
2023/05/19 08:38:56;;;;;;;9.68;1.85;;;23.80;50.90;;;;;;5059001;28;20829;-73
2023/05/19 08:41:23;;;;;;;6.45;1.60;;;23.80;48.30;;;;;;5041293;28;20151;-73
2023/05/19 08:43:50;;;;;;;3.92;1.58;;;24.00;47.60;;;;;;5064270;28;20135;-73
2023/05/19 08:46:17;;;;;;;4.40;1.88;;;24.00;47.60;;;;;;5048007;28;20457;-72
2023/05/19 08:48:46;;;;;;;7.80;1.75;;;24.10;47.30;;;;;;5046061;28;20056;-73
2023/05/19 08:51:37;;;;;;;15.32;1.98;;;24.10;48.10;;;;;;5043760;28;20076;-72
2023/05/19 08:54:14;;;;;;;3.50;1.60;;;24.70;45.30;;;;;;5059372;28;20174;-73
2023/05/19 08:56:43;;;;;;;9.10;2.00;;;24.60;45.70;;;;;;5060710;28;20048;-74
2023/05/19 08:59:12;;;;;;;8.95;1.90;;;24.80;47.50;;;;;;5059308;28;20049;-73
2023/05/19 09:01:43;;;;;;;4.80;1.40;;;25.30;45.30;;;;;;5045768;28;20044;-73
2023/05/19 09:04:10;;;;;;;6.88;1.30;;;25.10;44.90;;;;;;5048623;28;20193;-73
2023/05/19 09:06:39;;;;;;;7.65;1.65;;;25.00;45.10;;;;;;5059735;28;20137;-74
2023/05/19 09:09:07;;;;;;;12.13;1.83;;;24.30;43.80;;;;;;5059652;28;20059;-73
2023/05/19 09:11:37;;;;;;;4.85;1.30;;;24.40;44.80;;;;;;5055579;28;20778;-74
2023/05/19 09:14:04;;;;;;;7.43;2.00;;;24.20;44.90;;;;;;5042978;28;20535;-73
2023/05/19 09:16:32;;;;;;;9.07;1.65;;;24.10;45.50;;;;;;5056601;28;20048;-73
2023/05/19 09:18:59;;;;;;;11.77;1.60;;;23.70;44.90;;;;;;5044029;28;20048;-73
2023/05/19 09:21:31;;;;;;;8.07;1.60;;;23.80;47.60;;;;;;5062327;28;20048;-73
2023/05/19 09:24:08;;;;;;;8.50;2.20;;;24.10;46.20;;;;;;5064270;28;20052;-73
2023/05/19 09:26:40;;;;;;;6.95;1.85;;;24.40;45.90;;;;;;5062869;28;20068;-73
2023/05/19 09:29:11;;;;;;;15.68;2.63;;;24.50;45.20;;;;;;5044893;28;20052;-73
2023/05/19 09:31:38;;;;;;;4.90;1.58;;;24.70;45.50;;;;;;5043813;28;20048;-73
2023/05/19 09:34:12;;;;;;;5.25;1.65;;;24.70;45.40;;;;;;5040871;28;20045;-73
2023/05/19 09:36:42;;;;;;;5.95;1.45;;;24.70;46.00;;;;;;5060295;28;20052;-74
2023/05/19 09:39:13;;;;;;;10.00;1.85;;;25.00;45.40;;;;;;5046988;28;20159;-73
2023/05/19 09:41:40;;;;;;;6.82;1.65;;;24.90;45.80;;;;;;5044532;28;20179;-73
2023/05/19 09:44:31;;;;;;;9.77;1.58;;;25.30;44.20;;;;;;5057547;28;20049;-74
2023/05/19 09:46:58;;;;;;;6.63;1.60;;;25.50;43.60;;;;;;5063150;28;20056;-74
2023/05/19 09:49:31;;;;;;;8.05;1.85;;;25.70;43.10;;;;;;5041761;28;20075;-73
2023/05/19 09:52:02;;;;;;;4.20;1.52;;;25.60;43.80;;;;;;5039178;28;20489;-73
2023/05/19 09:54:31;;;;;;;4.50;1.20;;;25.70;42.80;;;;;;5062581;28;20772;-74
2023/05/19 09:56:59;;;;;;;3.65;1.58;;;25.00;44.10;;;;;;5044758;28;20051;-73
2023/05/19 09:59:27;;;;;;;22.98;1.88;;;24.90;44.10;;;;;;5063825;28;20131;-73
2023/05/19 10:01:59;;;;;;;3.05;1.38;;;24.80;41.90;;;;;;5060537;28;20079;-73
2023/05/19 10:04:28;;;;;;;6.43;1.50;;;24.80;42.70;;;;;;5064721;28;20049;-74
2023/05/19 10:06:58;;;;;;;9.23;1.75;;;24.40;43.80;;;;;;5042417;28;20132;-73
2023/05/19 10:09:27;;;;;;;5.47;1.52;;;24.10;43.70;;;;;;5062938;28;20473;-73
2023/05/19 10:11:55;;;;;;;5.35;1.25;;;23.10;45.00;;;;;;5062617;28;20040;-73
2023/05/19 10:14:24;;;;;;;4.75;1.80;;;23.40;44.60;;;;;;5063629;28;20491;-74
2023/05/19 10:16:52;;;;;;;2.85;1.45;;;24.00;44.60;;;;;;5063345;28;20064;-74
2023/05/19 10:19:21;;;;;;;8.05;1.30;;;24.50;43.60;;;;;;5061268;28;20052;-73
2023/05/19 10:21:49;;;;;;;2.25;1.25;;;24.40;42.50;;;;;;5043600;28;20040;-74
2023/05/19 10:24:17;;;;;;;3.13;1.40;;;24.40;43.40;;;;;;5045264;28;20809;-74
2023/05/19 10:27:06;;;;;;;8.27;1.38;;;24.30;43.70;;;;;;5037789;28;20131;-73
2023/05/19 10:29:38;;;;;;;5.15;1.70;;;24.80;42.00;;;;;;5045480;28;20159;-74
2023/05/19 10:32:18;;;;;;;11.35;1.67;;;24.60;40.60;;;;;;5063703;28;20098;-73
2023/05/19 10:35:22;;;;;;;6.03;1.60;;;24.40;39.80;;;;;;5056303;28;20086;-73
2023/05/19 10:38:04;;;;;;;10.98;1.60;;;23.70;40.40;;;;;;5059915;28;20049;-74
2023/05/19 10:40:40;;;;;;;7.40;1.55;;;23.20;42.30;;;;;;5036002;28;20067;-73
2023/05/19 10:43:10;;;;;;;46.50;3.10;;;23.40;43.40;;;;;;5060993;28;20060;-73
2023/05/19 10:45:48;;;;;;;5.65;1.75;;;23.00;43.00;;;;;;5042392;28;20053;-73
2023/05/19 10:48:15;;;;;;;3.38;1.20;;;23.00;43.20;;;;;;5059226;28;20125;-73
2023/05/19 10:50:44;;;;;;;4.78;1.23;;;23.20;43.30;;;;;;5060716;28;20052;-73
2023/05/19 10:53:22;;;;;;;3.80;1.30;;;23.60;42.30;;;;;;5063042;28;20076;-74
2023/05/19 10:56:03;;;;;;;11.82;1.98;;;23.60;40.30;;;;;;5040287;28;20048;-74
2023/05/19 10:58:45;;;;;;;3.78;1.20;;;23.40;41.20;;;;;;5060056;28;20076;-73
2023/05/19 11:01:14;;;;;;;25.13;1.70;;;23.40;42.30;;;;;;5043423;28;20135;-73
2023/05/19 11:03:55;;;;;;;4.03;1.20;;;23.10;40.00;;;;;;5045850;28;20062;-73
2023/05/19 11:06:27;;;;;;;9.38;1.50;;;23.30;40.10;;;;;;5062497;28;20056;-74
2023/05/19 11:09:14;;;;;;;3.35;1.40;;;23.00;39.00;;;;;;5055108;28;20055;-73
2023/05/19 11:11:50;;;;;;;3.00;1.20;;;22.70;39.10;;;;;;5057122;28;20155;-73
2023/05/19 11:14:22;;;;;;;6.00;1.42;;;22.70;40.70;;;;;;5060977;28;20055;-74
2023/05/19 11:16:51;;;;;;;5.40;1.35;;;22.20;40.70;;;;;;5039982;28;20107;-73
2023/05/19 11:19:26;;;;;;;4.43;1.15;;;21.80;42.50;;;;;;5057658;28;20081;-73
2023/05/19 11:21:54;;;;;;;;;;;21.80;43.90;;;;;;5054316;28;20501;-74
2023/05/19 11:24:36;;;;;;;2.97;1.30;;;22.30;42.40;;;;;;5058081;28;19924;-74
2023/05/19 11:27:24;;;;;;;5.97;1.60;;;22.70;40.70;;;;;;5061492;28;20059;-74
2023/05/19 11:29:51;;;;;;;4.07;1.50;;;23.00;41.30;;;;;;5044276;28;20106;-74
2023/05/19 11:32:24;;;;;;;3.45;1.10;;;23.10;40.10;;;;;;5041064;28;20056;-74
2023/05/19 11:34:52;;;;;;;6.18;1.15;;;23.80;41.40;;;;;;5044934;28;20048;-74
2023/05/19 11:37:19;;;;;;;9.13;1.55;;;23.40;39.90;;;;;;5039500;28;20045;-73
2023/05/19 11:39:46;;;;;;;3.20;1.20;;;23.50;38.50;;;;;;5057711;28;20070;-73
2023/05/19 11:42:13;;;;;;;5.18;1.40;;;22.60;39.40;;;;;;5055623;28;20413;-75
2023/05/19 11:44:40;;;;;;;6.47;1.20;;;22.00;39.40;;;;;;5043249;28;20107;-74
2023/05/19 11:47:07;;;;;;;9.82;1.60;;;21.60;40.30;;;;;;5055484;28;20059;-75
2023/05/19 11:49:34;;;;;;;3.35;1.08;;;21.30;41.00;;;;;;5059439;28;20843;-74
2023/05/19 11:52:02;;;;;;;2.08;1.10;;;20.90;41.50;;;;;;5056553;28;20052;-75
2023/05/19 11:54:35;;;;;;;4.97;1.17;;;20.40;42.30;;;;;;5066449;28;20048;-75
2023/05/19 11:57:03;;;;;;;3.90;1.15;;;20.50;42.40;;;;;;5058764;28;20056;-74
2023/05/19 11:59:34;;;;;;;5.55;1.20;;;20.50;42.20;;;;;;5039739;28;20052;-74
2023/05/19 12:02:17;;;;;;;24.02;2.05;;;20.20;42.30;;;;;;5057846;28;20130;-74
2023/05/19 12:04:45;;;;;;;7.07;1.00;;;20.00;43.30;;;;;;5050326;28;20052;-74
2023/05/19 12:07:12;;;;;;;3.30;1.27;;;19.80;43.00;;;;;;5047929;28;20159;-74
2023/05/19 12:09:39;;;;;;;3.38;1.10;;;19.80;43.30;;;;;;5046741;28;20059;-74
2023/05/19 12:12:06;;;;;;;6.72;1.20;;;19.80;43.40;;;;;;5066872;28;20591;-74
2023/05/19 12:14:34;;;;;;;2.45;1.10;;;20.20;45.60;;;;;;5065772;28;20131;-74
2023/05/19 12:17:15;;;;;;;5.72;1.10;;;20.90;43.70;;;;;;5062187;28;20053;-74
2023/05/19 12:19:43;;;;;;;6.43;1.25;;;21.60;42.00;;;;;;5057524;28;21599;-74
2023/05/19 12:22:11;;;;;;;1.77;1.02;;;22.00;41.10;;;;;;5046198;28;20052;-74
2023/05/19 12:24:39;;;;;;;6.10;1.10;;;22.30;41.30;;;;;;5066446;28;20048;-73
2023/05/19 12:27:19;;;;;;;68.95;3.35;;;22.30;40.00;;;;;;5046298;28;20078;-74
2023/05/19 12:29:53;;;;;;;29.58;2.35;;;22.00;39.00;;;;;;5040191;28;20052;-74
2023/05/19 12:32:27;;;;;;;3.50;1.20;;;21.60;41.50;;;;;;5062501;28;20163;-74
2023/05/19 12:34:57;;;;;;;17.13;1.77;;;21.60;39.90;;;;;;5047016;28;20052;-73
2023/05/19 12:37:28;;;;;;;34.13;2.20;;;21.70;40.10;;;;;;5065433;28;20755;-73
2023/05/19 12:39:56;;;;;;;7.43;1.38;;;21.80;39.70;;;;;;5062461;28;20044;-74
2023/05/19 12:42:29;;;;;;;4.88;1.42;;;21.70;38.80;;;;;;5065719;28;20122;-73
2023/05/19 12:44:59;;;;;;;12.82;1.30;;;21.40;38.60;;;;;;5062863;28;20138;-74
2023/05/19 12:47:38;;;;;;;8.85;1.23;;;21.30;38.90;;;;;;5058763;28;20127;-73
2023/05/19 12:50:07;;;;;;;2.75;0.88;;;21.40;39.50;;;;;;5064588;28;20053;-74
2023/05/19 12:52:50;;;;;;;4.57;1.00;;;21.50;38.40;;;;;;5044122;28;20110;-74
2023/05/19 12:55:19;;;;;;;6.28;1.10;;;21.60;37.70;;;;;;5046771;28;20048;-75
2023/05/19 12:57:55;;;;;;;3.65;0.60;;;21.60;36.80;;;;;;5063272;28;20127;-74